sensor_id;sensor_type;location;lat;lon;timestamp;P1;durP1;ratioP1;P2;durP2;ratioP2
9960;SDS011;5021;51.506;11.320;2022-07-06T00:01:14;2.23;;;1.63;;
9960;SDS011;5021;51.506;11.320;2022-07-06T00:03:39;6.63;;;1.30;;
9960;SDS011;5021;51.506;11.320;2022-07-06T00:06:05;3.17;;;1.90;;
9960;SDS011;5021;51.506;11.320;2022-07-06T00:08:31;2.43;;;1.77;;
9960;SDS011;5021;51.506;11.320;2022-07-06T00:10:57;1.80;;;1.30;;
9960;SDS011;5021;51.506;11.320;2022-07-06T00:13:23;2.73;;;1.63;;
9960;SDS011;5021;51.506;11.320;2022-07-06T00:15:49;4.17;;;1.50;;
9960;SDS011;5021;51.506;11.320;2022-07-06T00:18:15;2.13;;;1.60;;
9960;SDS011;5021;51.506;11.320;2022-07-06T00:20:41;2.80;;;1.67;;
9960;SDS011;5021;51.506;11.320;2022-07-06T00:23:07;4.67;;;1.60;;
9960;SDS011;5021;51.506;11.320;2022-07-06T00:25:33;2.93;;;1.80;;
9960;SDS011;5021;51.506;11.320;2022-07-06T00:27:59;1.67;;;1.50;;
9960;SDS011;5021;51.506;11.320;2022-07-06T00:30:25;3.07;;;1.63;;
9960;SDS011;5021;51.506;11.320;2022-07-06T00:32:51;6.37;;;2.30;;
9960;SDS011;5021;51.506;11.320;2022-07-06T00:35:17;4.07;;;1.50;;
9960;SDS011;5021;51.506;11.320;2022-07-06T00:37:43;4.33;;;2.30;;
9960;SDS011;5021;51.506;11.320;2022-07-06T00:40:09;3.40;;;1.80;;
9960;SDS011;5021;51.506;11.320;2022-07-06T00:42:42;5.73;;;1.70;;
9960;SDS011;5021;51.506;11.320;2022-07-06T00:45:09;2.70;;;1.73;;
9960;SDS011;5021;51.506;11.320;2022-07-06T00:47:36;3.37;;;1.80;;
9960;SDS011;5021;51.506;11.320;2022-07-06T00:50:05;3.30;;;1.50;;
9960;SDS011;5021;51.506;11.320;2022-07-06T00:52:56;3.60;;;1.70;;
9960;SDS011;5021;51.506;11.320;2022-07-06T00:55:23;2.47;;;1.50;;
9960;SDS011;5021;51.506;11.320;2022-07-06T00:57:49;3.37;;;1.67;;
9960;SDS011;5021;51.506;11.320;2022-07-06T01:00:16;5.47;;;1.60;;
9960;SDS011;5021;51.506;11.320;2022-07-06T01:02:43;1.93;;;1.40;;
9960;SDS011;5021;51.506;11.320;2022-07-06T01:05:10;3.13;;;1.83;;
9960;SDS011;5021;51.506;11.320;2022-07-06T01:07:37;3.27;;;1.80;;
9960;SDS011;5021;51.506;11.320;2022-07-06T01:10:03;5.13;;;1.87;;
9960;SDS011;5021;51.506;11.320;2022-07-06T01:12:30;5.00;;;1.93;;
9960;SDS011;5021;51.506;11.320;2022-07-06T01:14:56;4.07;;;1.83;;
9960;SDS011;5021;51.506;11.320;2022-07-06T01:17:22;4.03;;;1.80;;
9960;SDS011;5021;51.506;11.320;2022-07-06T01:19:49;2.47;;;1.60;;
9960;SDS011;5021;51.506;11.320;2022-07-06T01:22:15;2.70;;;1.70;;
9960;SDS011;5021;51.506;11.320;2022-07-06T01:24:41;2.53;;;1.60;;
9960;SDS011;5021;51.506;11.320;2022-07-06T01:27:07;4.07;;;1.80;;
9960;SDS011;5021;51.506;11.320;2022-07-06T01:29:33;3.90;;;1.60;;
9960;SDS011;5021;51.506;11.320;2022-07-06T01:32:00;2.90;;;1.80;;
9960;SDS011;5021;51.506;11.320;2022-07-06T01:34:26;3.23;;;1.93;;
9960;SDS011;5021;51.506;11.320;2022-07-06T01:36:52;3.53;;;1.93;;
9960;SDS011;5021;51.506;11.320;2022-07-06T01:39:19;3.13;;;1.77;;
9960;SDS011;5021;51.506;11.320;2022-07-06T01:41:45;2.30;;;1.80;;
9960;SDS011;5021;51.506;11.320;2022-07-06T01:44:11;3.87;;;2.00;;
9960;SDS011;5021;51.506;11.320;2022-07-06T01:46:38;3.27;;;1.80;;
9960;SDS011;5021;51.506;11.320;2022-07-06T01:49:04;4.20;;;1.90;;
9960;SDS011;5021;51.506;11.320;2022-07-06T01:51:30;3.03;;;1.50;;
9960;SDS011;5021;51.506;11.320;2022-07-06T01:53:56;1.70;;;1.60;;
9960;SDS011;5021;51.506;11.320;2022-07-06T01:56:22;2.53;;;1.80;;
9960;SDS011;5021;51.506;11.320;2022-07-06T01:58:49;5.40;;;1.97;;
9960;SDS011;5021;51.506;11.320;2022-07-06T02:01:16;3.47;;;2.00;;
9960;SDS011;5021;51.506;11.320;2022-07-06T02:03:43;5.53;;;2.30;;
9960;SDS011;5021;51.506;11.320;2022-07-06T02:06:09;3.10;;;2.00;;
9960;SDS011;5021;51.506;11.320;2022-07-06T02:08:37;4.20;;;2.10;;
9960;SDS011;5021;51.506;11.320;2022-07-06T02:11:03;3.07;;;2.10;;
9960;SDS011;5021;51.506;11.320;2022-07-06T02:13:29;3.37;;;1.80;;
9960;SDS011;5021;51.506;11.320;2022-07-06T02:15:55;3.27;;;1.83;;
9960;SDS011;5021;51.506;11.320;2022-07-06T02:18:21;4.80;;;2.10;;
9960;SDS011;5021;51.506;11.320;2022-07-06T02:20:47;5.77;;;2.40;;
9960;SDS011;5021;51.506;11.320;2022-07-06T02:23:13;4.63;;;2.10;;
9960;SDS011;5021;51.506;11.320;2022-07-06T02:25:39;3.53;;;2.03;;
9960;SDS011;5021;51.506;11.320;2022-07-06T02:28:05;3.90;;;1.87;;
9960;SDS011;5021;51.506;11.320;2022-07-06T02:30:31;4.37;;;2.30;;
9960;SDS011;5021;51.506;11.320;2022-07-06T02:32:57;3.53;;;2.00;;
9960;SDS011;5021;51.506;11.320;2022-07-06T02:35:23;3.60;;;1.93;;
9960;SDS011;5021;51.506;11.320;2022-07-06T02:37:49;3.43;;;1.90;;
9960;SDS011;5021;51.506;11.320;2022-07-06T02:40:15;3.47;;;1.73;;
9960;SDS011;5021;51.506;11.320;2022-07-06T02:42:41;3.23;;;1.90;;
9960;SDS011;5021;51.506;11.320;2022-07-06T02:45:07;4.17;;;2.13;;
9960;SDS011;5021;51.506;11.320;2022-07-06T02:47:34;3.70;;;2.10;;
9960;SDS011;5021;51.506;11.320;2022-07-06T02:50:00;3.30;;;1.90;;
9960;SDS011;5021;51.506;11.320;2022-07-06T02:52:26;3.43;;;2.23;;
9960;SDS011;5021;51.506;11.320;2022-07-06T02:54:52;3.03;;;2.10;;
9960;SDS011;5021;51.506;11.320;2022-07-06T02:57:18;3.40;;;1.90;;
9960;SDS011;5021;51.506;11.320;2022-07-06T02:59:44;3.83;;;1.93;;
9960;SDS011;5021;51.506;11.320;2022-07-06T03:02:11;3.83;;;2.00;;
9960;SDS011;5021;51.506;11.320;2022-07-06T03:04:37;3.57;;;1.73;;
9960;SDS011;5021;51.506;11.320;2022-07-06T03:07:03;2.80;;;1.80;;
9960;SDS011;5021;51.506;11.320;2022-07-06T03:09:29;3.73;;;1.87;;
9960;SDS011;5021;51.506;11.320;2022-07-06T03:11:55;4.20;;;2.30;;
9960;SDS011;5021;51.506;11.320;2022-07-06T03:14:21;3.67;;;1.87;;
9960;SDS011;5021;51.506;11.320;2022-07-06T03:16:47;3.90;;;1.90;;
9960;SDS011;5021;51.506;11.320;2022-07-06T03:19:13;3.97;;;2.10;;
9960;SDS011;5021;51.506;11.320;2022-07-06T03:21:39;4.43;;;2.40;;
9960;SDS011;5021;51.506;11.320;2022-07-06T03:24:05;6.60;;;2.20;;
9960;SDS011;5021;51.506;11.320;2022-07-06T03:26:31;5.33;;;1.87;;
9960;SDS011;5021;51.506;11.320;2022-07-06T03:28:57;6.17;;;2.20;;
9960;SDS011;5021;51.506;11.320;2022-07-06T03:31:23;6.43;;;2.00;;
9960;SDS011;5021;51.506;11.320;2022-07-06T03:33:48;3.57;;;1.83;;
9960;SDS011;5021;51.506;11.320;2022-07-06T03:36:14;5.77;;;2.10;;
9960;SDS011;5021;51.506;11.320;2022-07-06T03:38:41;3.83;;;2.10;;
9960;SDS011;5021;51.506;11.320;2022-07-06T03:41:06;3.57;;;1.93;;
9960;SDS011;5021;51.506;11.320;2022-07-06T03:43:32;4.20;;;1.97;;
9960;SDS011;5021;51.506;11.320;2022-07-06T03:45:59;4.00;;;1.90;;
9960;SDS011;5021;51.506;11.320;2022-07-06T03:48:25;4.83;;;2.03;;
9960;SDS011;5021;51.506;11.320;2022-07-06T03:50:51;5.90;;;2.30;;
9960;SDS011;5021;51.506;11.320;2022-07-06T03:53:16;4.03;;;2.10;;
9960;SDS011;5021;51.506;11.320;2022-07-06T03:55:43;5.13;;;2.10;;
9960;SDS011;5021;51.506;11.320;2022-07-06T03:58:29;4.23;;;1.80;;
9960;SDS011;5021;51.506;11.320;2022-07-06T04:00:55;2.17;;;1.90;;
9960;SDS011;5021;51.506;11.320;2022-07-06T04:03:21;3.23;;;2.00;;
9960;SDS011;5021;51.506;11.320;2022-07-06T04:05:47;4.23;;;2.07;;
9960;SDS011;5021;51.506;11.320;2022-07-06T04:08:13;3.33;;;1.80;;
9960;SDS011;5021;51.506;11.320;2022-07-06T04:10:39;3.90;;;2.07;;
9960;SDS011;5021;51.506;11.320;2022-07-06T04:13:05;3.73;;;1.90;;
9960;SDS011;5021;51.506;11.320;2022-07-06T04:15:31;3.87;;;1.63;;
9960;SDS011;5021;51.506;11.320;2022-07-06T04:17:57;3.13;;;1.77;;
9960;SDS011;5021;51.506;11.320;2022-07-06T04:20:23;2.97;;;1.83;;
9960;SDS011;5021;51.506;11.320;2022-07-06T04:22:50;1.73;;;1.50;;
9960;SDS011;5021;51.506;11.320;2022-07-06T04:25:16;3.10;;;1.60;;
9960;SDS011;5021;51.506;11.320;2022-07-06T04:27:42;3.40;;;1.67;;
9960;SDS011;5021;51.506;11.320;2022-07-06T04:30:09;3.13;;;1.73;;
9960;SDS011;5021;51.506;11.320;2022-07-06T04:32:35;3.43;;;1.53;;
9960;SDS011;5021;51.506;11.320;2022-07-06T04:35:02;2.77;;;1.60;;
9960;SDS011;5021;51.506;11.320;2022-07-06T04:37:28;3.77;;;1.70;;
9960;SDS011;5021;51.506;11.320;2022-07-06T04:39:54;5.20;;;2.00;;
9960;SDS011;5021;51.506;11.320;2022-07-06T04:42:20;3.63;;;1.53;;
9960;SDS011;5021;51.506;11.320;2022-07-06T04:44:46;4.33;;;1.80;;
9960;SDS011;5021;51.506;11.320;2022-07-06T04:47:12;6.47;;;2.03;;
9960;SDS011;5021;51.506;11.320;2022-07-06T04:49:38;4.23;;;2.10;;
9960;SDS011;5021;51.506;11.320;2022-07-06T04:52:05;3.93;;;1.73;;
9960;SDS011;5021;51.506;11.320;2022-07-06T04:54:31;5.40;;;1.90;;
9960;SDS011;5021;51.506;11.320;2022-07-06T04:56:57;3.67;;;1.87;;
9960;SDS011;5021;51.506;11.320;2022-07-06T04:59:23;4.43;;;2.13;;
9960;SDS011;5021;51.506;11.320;2022-07-06T05:01:49;3.67;;;1.63;;
9960;SDS011;5021;51.506;11.320;2022-07-06T05:04:15;4.33;;;1.93;;
9960;SDS011;5021;51.506;11.320;2022-07-06T05:06:43;5.43;;;1.83;;
9960;SDS011;5021;51.506;11.320;2022-07-06T05:09:10;2.53;;;1.60;;
9960;SDS011;5021;51.506;11.320;2022-07-06T05:11:36;3.37;;;1.73;;
9960;SDS011;5021;51.506;11.320;2022-07-06T05:14:02;4.17;;;1.80;;
9960;SDS011;5021;51.506;11.320;2022-07-06T05:16:28;2.33;;;1.63;;
9960;SDS011;5021;51.506;11.320;2022-07-06T05:18:54;5.50;;;2.00;;
9960;SDS011;5021;51.506;11.320;2022-07-06T05:21:20;3.77;;;2.10;;
9960;SDS011;5021;51.506;11.320;2022-07-06T05:23:46;4.80;;;1.90;;
9960;SDS011;5021;51.506;11.320;2022-07-06T05:26:12;3.20;;;1.90;;
9960;SDS011;5021;51.506;11.320;2022-07-06T05:28:38;4.10;;;2.00;;
9960;SDS011;5021;51.506;11.320;2022-07-06T05:31:05;2.93;;;2.20;;
9960;SDS011;5021;51.506;11.320;2022-07-06T05:33:31;4.83;;;2.00;;
9960;SDS011;5021;51.506;11.320;2022-07-06T05:35:57;2.27;;;1.63;;
9960;SDS011;5021;51.506;11.320;2022-07-06T05:38:23;5.83;;;2.00;;
9960;SDS011;5021;51.506;11.320;2022-07-06T05:40:49;3.30;;;1.80;;
9960;SDS011;5021;51.506;11.320;2022-07-06T05:43:16;3.50;;;2.10;;
9960;SDS011;5021;51.506;11.320;2022-07-06T05:45:42;4.50;;;1.97;;
9960;SDS011;5021;51.506;11.320;2022-07-06T05:48:08;3.77;;;1.60;;
9960;SDS011;5021;51.506;11.320;2022-07-06T05:50:53;3.37;;;1.70;;
9960;SDS011;5021;51.506;11.320;2022-07-06T05:53:19;4.60;;;1.90;;
9960;SDS011;5021;51.506;11.320;2022-07-06T05:55:45;6.57;;;2.17;;
9960;SDS011;5021;51.506;11.320;2022-07-06T05:58:11;5.23;;;2.00;;
9960;SDS011;5021;51.506;11.320;2022-07-06T06:00:37;3.30;;;1.83;;
9960;SDS011;5021;51.506;11.320;2022-07-06T06:03:03;2.50;;;1.83;;
9960;SDS011;5021;51.506;11.320;2022-07-06T06:05:29;3.73;;;1.87;;
9960;SDS011;5021;51.506;11.320;2022-07-06T06:07:55;3.23;;;1.63;;
9960;SDS011;5021;51.506;11.320;2022-07-06T06:10:22;3.53;;;1.97;;
9960;SDS011;5021;51.506;11.320;2022-07-06T06:12:49;2.30;;;1.50;;
9960;SDS011;5021;51.506;11.320;2022-07-06T06:15:15;4.33;;;1.93;;
9960;SDS011;5021;51.506;11.320;2022-07-06T06:17:41;2.67;;;1.40;;
9960;SDS011;5021;51.506;11.320;2022-07-06T06:20:08;2.33;;;1.30;;
9960;SDS011;5021;51.506;11.320;2022-07-06T06:22:47;2.53;;;1.60;;
9960;SDS011;5021;51.506;11.320;2022-07-06T06:25:14;3.10;;;1.70;;
9960;SDS011;5021;51.506;11.320;2022-07-06T06:27:40;2.77;;;1.80;;
9960;SDS011;5021;51.506;11.320;2022-07-06T06:30:06;2.70;;;1.60;;
9960;SDS011;5021;51.506;11.320;2022-07-06T06:32:33;2.07;;;1.30;;
9960;SDS011;5021;51.506;11.320;2022-07-06T06:34:59;4.07;;;1.70;;
9960;SDS011;5021;51.506;11.320;2022-07-06T06:37:25;2.43;;;1.20;;
9960;SDS011;5021;51.506;11.320;2022-07-06T06:39:51;2.13;;;1.40;;
9960;SDS011;5021;51.506;11.320;2022-07-06T06:42:17;2.27;;;1.30;;
9960;SDS011;5021;51.506;11.320;2022-07-06T06:44:42;2.57;;;1.30;;
9960;SDS011;5021;51.506;11.320;2022-07-06T06:47:08;2.27;;;0.90;;
9960;SDS011;5021;51.506;11.320;2022-07-06T06:49:34;2.57;;;1.47;;
9960;SDS011;5021;51.506;11.320;2022-07-06T06:52:00;1.20;;;1.10;;
9960;SDS011;5021;51.506;11.320;2022-07-06T06:54:26;3.53;;;1.57;;
9960;SDS011;5021;51.506;11.320;2022-07-06T06:56:52;1.73;;;1.03;;
9960;SDS011;5021;51.506;11.320;2022-07-06T06:59:18;1.80;;;1.30;;
9960;SDS011;5021;51.506;11.320;2022-07-06T07:01:44;4.00;;;1.43;;
9960;SDS011;5021;51.506;11.320;2022-07-06T07:04:10;2.37;;;1.30;;
9960;SDS011;5021;51.506;11.320;2022-07-06T07:06:36;2.07;;;1.00;;
9960;SDS011;5021;51.506;11.320;2022-07-06T07:09:02;2.23;;;1.30;;
9960;SDS011;5021;51.506;11.320;2022-07-06T07:11:30;3.43;;;1.40;;
9960;SDS011;5021;51.506;11.320;2022-07-06T07:13:56;2.60;;;1.13;;
9960;SDS011;5021;51.506;11.320;2022-07-06T07:16:22;3.17;;;1.30;;
9960;SDS011;5021;51.506;11.320;2022-07-06T07:18:49;4.93;;;2.10;;
9960;SDS011;5021;51.506;11.320;2022-07-06T07:21:15;2.43;;;1.30;;
9960;SDS011;5021;51.506;11.320;2022-07-06T07:23:41;3.57;;;1.47;;
9960;SDS011;5021;51.506;11.320;2022-07-06T07:26:07;2.57;;;1.17;;
9960;SDS011;5021;51.506;11.320;2022-07-06T07:28:33;4.03;;;1.43;;
9960;SDS011;5021;51.506;11.320;2022-07-06T07:30:59;2.23;;;1.33;;
9960;SDS011;5021;51.506;11.320;2022-07-06T07:33:25;2.53;;;1.23;;
9960;SDS011;5021;51.506;11.320;2022-07-06T07:35:51;2.93;;;1.60;;
9960;SDS011;5021;51.506;11.320;2022-07-06T07:38:17;1.17;;;0.93;;
9960;SDS011;5021;51.506;11.320;2022-07-06T07:40:43;2.37;;;1.30;;
9960;SDS011;5021;51.506;11.320;2022-07-06T07:43:09;2.13;;;1.50;;
9960;SDS011;5021;51.506;11.320;2022-07-06T07:45:35;2.37;;;1.30;;
9960;SDS011;5021;51.506;11.320;2022-07-06T07:48:01;3.30;;;1.67;;
9960;SDS011;5021;51.506;11.320;2022-07-06T07:50:27;2.33;;;1.37;;
9960;SDS011;5021;51.506;11.320;2022-07-06T07:52:54;4.27;;;1.60;;
9960;SDS011;5021;51.506;11.320;2022-07-06T07:55:20;1.90;;;1.30;;
9960;SDS011;5021;51.506;11.320;2022-07-06T07:57:46;2.30;;;1.40;;
9960;SDS011;5021;51.506;11.320;2022-07-06T08:00:12;1.60;;;1.10;;
9960;SDS011;5021;51.506;11.320;2022-07-06T08:02:38;2.13;;;1.43;;
9960;SDS011;5021;51.506;11.320;2022-07-06T08:05:04;2.50;;;1.40;;
9960;SDS011;5021;51.506;11.320;2022-07-06T08:07:31;3.93;;;1.50;;
9960;SDS011;5021;51.506;11.320;2022-07-06T08:09:56;3.30;;;1.33;;
9960;SDS011;5021;51.506;11.320;2022-07-06T08:12:22;6.30;;;1.90;;
9960;SDS011;5021;51.506;11.320;2022-07-06T08:14:48;4.13;;;1.30;;
9960;SDS011;5021;51.506;11.320;2022-07-06T08:17:15;3.00;;;1.40;;
9960;SDS011;5021;51.506;11.320;2022-07-06T08:19:41;2.73;;;1.33;;
9960;SDS011;5021;51.506;11.320;2022-07-06T08:22:06;2.50;;;1.30;;
9960;SDS011;5021;51.506;11.320;2022-07-06T08:24:36;4.80;;;1.73;;
9960;SDS011;5021;51.506;11.320;2022-07-06T08:27:02;2.37;;;1.50;;
9960;SDS011;5021;51.506;11.320;2022-07-06T08:29:28;3.03;;;1.40;;
9960;SDS011;5021;51.506;11.320;2022-07-06T08:31:55;2.17;;;1.23;;
9960;SDS011;5021;51.506;11.320;2022-07-06T08:34:21;2.53;;;1.17;;
9960;SDS011;5021;51.506;11.320;2022-07-06T08:36:47;1.87;;;1.20;;
9960;SDS011;5021;51.506;11.320;2022-07-06T08:39:13;1.90;;;1.13;;
9960;SDS011;5021;51.506;11.320;2022-07-06T08:41:40;3.70;;;1.30;;
9960;SDS011;5021;51.506;11.320;2022-07-06T08:44:07;2.40;;;1.40;;
9960;SDS011;5021;51.506;11.320;2022-07-06T08:46:33;1.67;;;1.20;;
9960;SDS011;5021;51.506;11.320;2022-07-06T08:49:00;1.00;;;0.90;;
9960;SDS011;5021;51.506;11.320;2022-07-06T08:51:27;2.73;;;1.43;;
9960;SDS011;5021;51.506;11.320;2022-07-06T08:53:53;3.37;;;1.70;;
9960;SDS011;5021;51.506;11.320;2022-07-06T08:56:20;3.40;;;1.53;;
9960;SDS011;5021;51.506;11.320;2022-07-06T08:58:46;4.10;;;1.17;;
9960;SDS011;5021;51.506;11.320;2022-07-06T09:01:12;3.40;;;1.50;;
9960;SDS011;5021;51.506;11.320;2022-07-06T09:03:39;3.10;;;1.23;;
9960;SDS011;5021;51.506;11.320;2022-07-06T09:06:05;1.90;;;1.10;;
9960;SDS011;5021;51.506;11.320;2022-07-06T09:08:32;2.43;;;1.20;;
9960;SDS011;5021;51.506;11.320;2022-07-06T09:10:58;1.67;;;1.30;;
9960;SDS011;5021;51.506;11.320;2022-07-06T09:13:24;3.33;;;1.40;;
9960;SDS011;5021;51.506;11.320;2022-07-06T09:15:50;2.03;;;1.10;;
9960;SDS011;5021;51.506;11.320;2022-07-06T09:18:16;1.37;;;0.97;;
9960;SDS011;5021;51.506;11.320;2022-07-06T09:20:42;3.07;;;1.50;;
9960;SDS011;5021;51.506;11.320;2022-07-06T09:23:08;1.90;;;1.40;;
9960;SDS011;5021;51.506;11.320;2022-07-06T09:25:34;2.17;;;1.40;;
9960;SDS011;5021;51.506;11.320;2022-07-06T09:28:00;3.67;;;1.53;;
9960;SDS011;5021;51.506;11.320;2022-07-06T09:30:27;3.73;;;1.47;;
9960;SDS011;5021;51.506;11.320;2022-07-06T09:32:55;3.03;;;1.60;;
9960;SDS011;5021;51.506;11.320;2022-07-06T09:35:22;7.60;;;1.67;;
9960;SDS011;5021;51.506;11.320;2022-07-06T09:40:31;2.33;;;1.37;;
9960;SDS011;5021;51.506;11.320;2022-07-06T09:45:39;1.60;;;1.20;;
9960;SDS011;5021;51.506;11.320;2022-07-06T09:48:10;2.63;;;1.40;;
9960;SDS011;5021;51.506;11.320;2022-07-06T09:50:40;1.43;;;1.20;;
9960;SDS011;5021;51.506;11.320;2022-07-06T09:53:07;3.53;;;1.43;;
9960;SDS011;5021;51.506;11.320;2022-07-06T09:55:33;2.87;;;1.60;;
9960;SDS011;5021;51.506;11.320;2022-07-06T09:57:59;2.90;;;1.30;;
9960;SDS011;5021;51.506;11.320;2022-07-06T10:00:25;4.37;;;1.30;;
9960;SDS011;5021;51.506;11.320;2022-07-06T10:02:51;3.73;;;1.43;;
9960;SDS011;5021;51.506;11.320;2022-07-06T10:05:17;2.03;;;1.47;;
9960;SDS011;5021;51.506;11.320;2022-07-06T10:07:46;1.77;;;1.20;;
9960;SDS011;5021;51.506;11.320;2022-07-06T10:10:14;2.60;;;1.10;;
9960;SDS011;5021;51.506;11.320;2022-07-06T10:12:42;2.67;;;1.17;;
9960;SDS011;5021;51.506;11.320;2022-07-06T10:15:09;1.00;;;0.90;;
9960;SDS011;5021;51.506;11.320;2022-07-06T10:17:36;4.63;;;1.30;;
9960;SDS011;5021;51.506;11.320;2022-07-06T10:20:04;1.13;;;0.90;;
9960;SDS011;5021;51.506;11.320;2022-07-06T10:22:31;2.20;;;1.20;;
9960;SDS011;5021;51.506;11.320;2022-07-06T10:24:57;0.80;;;0.80;;
9960;SDS011;5021;51.506;11.320;2022-07-06T10:27:24;2.57;;;1.30;;
9960;SDS011;5021;51.506;11.320;2022-07-06T10:29:50;1.07;;;0.83;;
9960;SDS011;5021;51.506;11.320;2022-07-06T10:32:18;2.07;;;1.10;;
9960;SDS011;5021;51.506;11.320;2022-07-06T10:34:44;2.13;;;0.97;;
9960;SDS011;5021;51.506;11.320;2022-07-06T10:37:21;1.47;;;1.07;;
9960;SDS011;5021;51.506;11.320;2022-07-06T10:39:47;2.17;;;1.00;;
9960;SDS011;5021;51.506;11.320;2022-07-06T10:42:39;3.73;;;1.30;;
9960;SDS011;5021;51.506;11.320;2022-07-06T10:45:05;1.60;;;1.00;;
9960;SDS011;5021;51.506;11.320;2022-07-06T10:47:31;1.87;;;0.90;;
9960;SDS011;5021;51.506;11.320;2022-07-06T10:50:00;2.03;;;1.20;;
9960;SDS011;5021;51.506;11.320;2022-07-06T10:52:47;1.87;;;1.20;;
9960;SDS011;5021;51.506;11.320;2022-07-06T10:55:27;0.90;;;0.90;;
9960;SDS011;5021;51.506;11.320;2022-07-06T10:57:54;2.00;;;1.30;;
9960;SDS011;5021;51.506;11.320;2022-07-06T11:00:20;2.73;;;1.07;;
9960;SDS011;5021;51.506;11.320;2022-07-06T11:02:46;1.60;;;1.20;;
9960;SDS011;5021;51.506;11.320;2022-07-06T11:05:13;1.90;;;1.03;;
9960;SDS011;5021;51.506;11.320;2022-07-06T11:08:01;1.93;;;0.90;;
9960;SDS011;5021;51.506;11.320;2022-07-06T11:10:27;2.93;;;1.00;;
9960;SDS011;5021;51.506;11.320;2022-07-06T11:12:59;1.57;;;1.07;;
9960;SDS011;5021;51.506;11.320;2022-07-06T11:15:46;3.87;;;1.33;;
9960;SDS011;5021;51.506;11.320;2022-07-06T11:18:12;2.07;;;0.93;;
9960;SDS011;5021;51.506;11.320;2022-07-06T11:20:39;0.80;;;0.80;;
9960;SDS011;5021;51.506;11.320;2022-07-06T11:23:05;1.60;;;1.00;;
9960;SDS011;5021;51.506;11.320;2022-07-06T11:25:31;2.40;;;1.03;;
9960;SDS011;5021;51.506;11.320;2022-07-06T11:27:57;1.13;;;1.03;;
9960;SDS011;5021;51.506;11.320;2022-07-06T11:30:24;1.87;;;1.00;;
9960;SDS011;5021;51.506;11.320;2022-07-06T11:32:50;2.50;;;1.20;;
9960;SDS011;5021;51.506;11.320;2022-07-06T11:35:22;3.33;;;1.20;;
9960;SDS011;5021;51.506;11.320;2022-07-06T11:37:48;2.07;;;1.20;;
9960;SDS011;5021;51.506;11.320;2022-07-06T11:40:17;2.90;;;1.50;;
9960;SDS011;5021;51.506;11.320;2022-07-06T11:42:52;2.60;;;1.20;;
9960;SDS011;5021;51.506;11.320;2022-07-06T11:45:25;2.07;;;1.20;;
9960;SDS011;5021;51.506;11.320;2022-07-06T11:48:07;2.20;;;1.50;;
9960;SDS011;5021;51.506;11.320;2022-07-06T11:50:34;1.77;;;1.10;;
9960;SDS011;5021;51.506;11.320;2022-07-06T11:53:00;3.10;;;1.67;;
9960;SDS011;5021;51.506;11.320;2022-07-06T11:55:27;3.83;;;1.33;;
9960;SDS011;5021;51.506;11.320;2022-07-06T11:57:54;1.70;;;1.23;;
9960;SDS011;5021;51.506;11.320;2022-07-06T12:00:22;2.33;;;1.27;;
9960;SDS011;5021;51.506;11.320;2022-07-06T12:03:00;2.60;;;1.17;;
9960;SDS011;5021;51.506;11.320;2022-07-06T12:05:30;1.97;;;1.20;;
9960;SDS011;5021;51.506;11.320;2022-07-06T12:08:08;2.80;;;1.20;;
9960;SDS011;5021;51.506;11.320;2022-07-06T12:10:34;2.10;;;1.07;;
9960;SDS011;5021;51.506;11.320;2022-07-06T12:13:03;3.70;;;1.23;;
9960;SDS011;5021;51.506;11.320;2022-07-06T12:15:29;3.40;;;1.20;;
9960;SDS011;5021;51.506;11.320;2022-07-06T12:17:55;2.17;;;1.23;;
9960;SDS011;5021;51.506;11.320;2022-07-06T12:20:21;1.13;;;1.03;;
9960;SDS011;5021;51.506;11.320;2022-07-06T12:22:47;1.67;;;1.10;;
9960;SDS011;5021;51.506;11.320;2022-07-06T12:25:28;2.10;;;1.20;;
9960;SDS011;5021;51.506;11.320;2022-07-06T12:27:54;2.87;;;1.07;;
9960;SDS011;5021;51.506;11.320;2022-07-06T12:30:20;2.77;;;1.60;;
9960;SDS011;5021;51.506;11.320;2022-07-06T12:32:46;1.67;;;1.20;;
9960;SDS011;5021;51.506;11.320;2022-07-06T12:35:12;1.63;;;1.17;;
9960;SDS011;5021;51.506;11.320;2022-07-06T12:37:40;3.73;;;1.40;;
9960;SDS011;5021;51.506;11.320;2022-07-06T12:40:21;1.80;;;1.17;;
9960;SDS011;5021;51.506;11.320;2022-07-06T12:42:52;3.43;;;1.43;;
9960;SDS011;5021;51.506;11.320;2022-07-06T12:45:18;3.10;;;1.43;;
9960;SDS011;5021;51.506;11.320;2022-07-06T12:48:00;2.30;;;1.07;;
9960;SDS011;5021;51.506;11.320;2022-07-06T12:50:30;5.40;;;1.60;;
9960;SDS011;5021;51.506;11.320;2022-07-06T12:52:57;2.83;;;1.30;;
9960;SDS011;5021;51.506;11.320;2022-07-06T12:55:27;2.43;;;1.23;;
9960;SDS011;5021;51.506;11.320;2022-07-06T12:57:53;2.67;;;1.20;;
9960;SDS011;5021;51.506;11.320;2022-07-06T13:00:19;2.50;;;1.23;;
9960;SDS011;5021;51.506;11.320;2022-07-06T13:02:47;2.30;;;1.10;;
9960;SDS011;5021;51.506;11.320;2022-07-06T13:05:14;2.23;;;1.20;;
9960;SDS011;5021;51.506;11.320;2022-07-06T13:07:44;2.70;;;1.20;;
9960;SDS011;5021;51.506;11.320;2022-07-06T13:10:11;2.47;;;1.47;;
9960;SDS011;5021;51.506;11.320;2022-07-06T13:12:37;3.27;;;1.50;;
9960;SDS011;5021;51.506;11.320;2022-07-06T13:15:04;3.07;;;1.00;;
9960;SDS011;5021;51.506;11.320;2022-07-06T13:17:31;3.23;;;1.40;;
9960;SDS011;5021;51.506;11.320;2022-07-06T13:19:57;1.83;;;1.13;;
9960;SDS011;5021;51.506;11.320;2022-07-06T13:22:23;3.60;;;1.20;;
9960;SDS011;5021;51.506;11.320;2022-07-06T13:24:49;4.57;;;1.10;;
9960;SDS011;5021;51.506;11.320;2022-07-06T13:27:15;2.27;;;1.00;;
9960;SDS011;5021;51.506;11.320;2022-07-06T13:29:41;1.27;;;0.90;;
9960;SDS011;5021;51.506;11.320;2022-07-06T13:32:07;1.53;;;0.80;;
9960;SDS011;5021;51.506;11.320;2022-07-06T13:34:33;2.50;;;1.13;;
9960;SDS011;5021;51.506;11.320;2022-07-06T13:37:02;2.03;;;1.10;;
9960;SDS011;5021;51.506;11.320;2022-07-06T13:39:29;1.53;;;1.00;;
9960;SDS011;5021;51.506;11.320;2022-07-06T13:41:55;3.67;;;1.30;;
9960;SDS011;5021;51.506;11.320;2022-07-06T13:44:21;3.03;;;1.30;;
9960;SDS011;5021;51.506;11.320;2022-07-06T13:46:47;2.60;;;1.50;;
9960;SDS011;5021;51.506;11.320;2022-07-06T13:49:13;5.37;;;1.47;;
9960;SDS011;5021;51.506;11.320;2022-07-06T13:51:39;2.77;;;1.10;;
9960;SDS011;5021;51.506;11.320;2022-07-06T13:54:05;1.40;;;0.90;;
9960;SDS011;5021;51.506;11.320;2022-07-06T13:56:31;4.17;;;1.40;;
9960;SDS011;5021;51.506;11.320;2022-07-06T13:58:57;3.23;;;1.13;;
9960;SDS011;5021;51.506;11.320;2022-07-06T14:01:24;2.90;;;1.50;;
9960;SDS011;5021;51.506;11.320;2022-07-06T14:03:50;2.27;;;1.20;;
9960;SDS011;5021;51.506;11.320;2022-07-06T14:06:16;3.83;;;1.23;;
9960;SDS011;5021;51.506;11.320;2022-07-06T14:08:43;1.57;;;1.00;;
9960;SDS011;5021;51.506;11.320;2022-07-06T14:11:09;1.60;;;0.90;;
9960;SDS011;5021;51.506;11.320;2022-07-06T14:13:35;2.93;;;1.03;;
9960;SDS011;5021;51.506;11.320;2022-07-06T14:16:02;1.47;;;0.80;;
9960;SDS011;5021;51.506;11.320;2022-07-06T14:18:28;1.30;;;0.97;;
9960;SDS011;5021;51.506;11.320;2022-07-06T14:20:54;3.93;;;1.37;;
9960;SDS011;5021;51.506;11.320;2022-07-06T14:23:21;1.47;;;1.20;;
9960;SDS011;5021;51.506;11.320;2022-07-06T14:25:47;2.33;;;1.27;;
9960;SDS011;5021;51.506;11.320;2022-07-06T14:28:13;2.00;;;1.23;;
9960;SDS011;5021;51.506;11.320;2022-07-06T14:30:40;2.33;;;1.17;;
9960;SDS011;5021;51.506;11.320;2022-07-06T14:33:07;1.10;;;0.97;;
9960;SDS011;5021;51.506;11.320;2022-07-06T14:35:52;7.20;;;1.47;;
9960;SDS011;5021;51.506;11.320;2022-07-06T14:38:18;2.57;;;0.93;;
9960;SDS011;5021;51.506;11.320;2022-07-06T14:40:44;3.80;;;1.17;;
9960;SDS011;5021;51.506;11.320;2022-07-06T14:43:10;2.17;;;1.07;;
9960;SDS011;5021;51.506;11.320;2022-07-06T14:45:36;2.57;;;0.87;;
9960;SDS011;5021;51.506;11.320;2022-07-06T14:48:03;1.97;;;0.80;;
9960;SDS011;5021;51.506;11.320;2022-07-06T14:50:30;1.97;;;0.87;;
9960;SDS011;5021;51.506;11.320;2022-07-06T14:52:56;3.33;;;1.20;;
9960;SDS011;5021;51.506;11.320;2022-07-06T14:55:22;1.63;;;1.00;;
9960;SDS011;5021;51.506;11.320;2022-07-06T14:57:49;1.03;;;0.70;;
9960;SDS011;5021;51.506;11.320;2022-07-06T15:00:15;3.07;;;1.03;;
9960;SDS011;5021;51.506;11.320;2022-07-06T15:02:41;2.23;;;1.00;;
9960;SDS011;5021;51.506;11.320;2022-07-06T15:05:08;0.93;;;0.87;;